sensor_id;sensor_type;location;lat;lon;timestamp;P1;durP1;ratioP1;P2;durP2;ratioP2
18449;SDS011;9354;50.194;7.690;2023-01-30T00:00:54;32.13;;;13.23;;
18449;SDS011;9354;50.194;7.690;2023-01-30T00:03:24;37.50;;;14.37;;
18449;SDS011;9354;50.194;7.690;2023-01-30T00:05:52;32.67;;;13.10;;
18449;SDS011;9354;50.194;7.690;2023-01-30T00:08:20;35.00;;;13.33;;
18449;SDS011;9354;50.194;7.690;2023-01-30T00:10:47;35.33;;;13.60;;
18449;SDS011;9354;50.194;7.690;2023-01-30T00:13:15;36.03;;;13.40;;
18449;SDS011;9354;50.194;7.690;2023-01-30T00:15:43;33.37;;;12.23;;
18449;SDS011;9354;50.194;7.690;2023-01-30T00:18:10;34.73;;;12.63;;
18449;SDS011;9354;50.194;7.690;2023-01-30T00:20:39;30.30;;;12.07;;
18449;SDS011;9354;50.194;7.690;2023-01-30T00:23:06;29.47;;;12.17;;
18449;SDS011;9354;50.194;7.690;2023-01-30T00:25:33;32.87;;;12.30;;
18449;SDS011;9354;50.194;7.690;2023-01-30T00:28:01;31.27;;;12.27;;
18449;SDS011;9354;50.194;7.690;2023-01-30T00:30:29;32.57;;;11.87;;
18449;SDS011;9354;50.194;7.690;2023-01-30T00:32:56;30.87;;;12.27;;
18449;SDS011;9354;50.194;7.690;2023-01-30T00:35:25;29.17;;;12.30;;
18449;SDS011;9354;50.194;7.690;2023-01-30T00:37:56;30.23;;;11.83;;
18449;SDS011;9354;50.194;7.690;2023-01-30T00:40:24;32.20;;;12.80;;
18449;SDS011;9354;50.194;7.690;2023-01-30T00:42:53;28.37;;;10.90;;
18449;SDS011;9354;50.194;7.690;2023-01-30T00:45:38;31.27;;;11.63;;
18449;SDS011;9354;50.194;7.690;2023-01-30T00:48:24;27.80;;;11.63;;
18449;SDS011;9354;50.194;7.690;2023-01-30T00:50:51;33.07;;;12.13;;
18449;SDS011;9354;50.194;7.690;2023-01-30T00:53:20;30.27;;;12.57;;
18449;SDS011;9354;50.194;7.690;2023-01-30T00:55:49;34.47;;;12.77;;
18449;SDS011;9354;50.194;7.690;2023-01-30T00:58:17;34.90;;;12.83;;
18449;SDS011;9354;50.194;7.690;2023-01-30T01:00:44;34.97;;;13.70;;
18449;SDS011;9354;50.194;7.690;2023-01-30T01:03:12;31.97;;;12.23;;
18449;SDS011;9354;50.194;7.690;2023-01-30T01:05:40;28.57;;;11.20;;
18449;SDS011;9354;50.194;7.690;2023-01-30T01:08:07;23.90;;;10.60;;
18449;SDS011;9354;50.194;7.690;2023-01-30T01:10:36;27.13;;;11.30;;
18449;SDS011;9354;50.194;7.690;2023-01-30T01:13:04;29.60;;;11.40;;
18449;SDS011;9354;50.194;7.690;2023-01-30T01:15:32;27.47;;;11.77;;
18449;SDS011;9354;50.194;7.690;2023-01-30T01:17:59;27.77;;;11.20;;
18449;SDS011;9354;50.194;7.690;2023-01-30T01:20:27;31.73;;;12.47;;
18449;SDS011;9354;50.194;7.690;2023-01-30T01:22:55;27.90;;;11.20;;
18449;SDS011;9354;50.194;7.690;2023-01-30T01:25:23;31.00;;;11.23;;
18449;SDS011;9354;50.194;7.690;2023-01-30T01:27:53;27.07;;;11.50;;
18449;SDS011;9354;50.194;7.690;2023-01-30T01:30:21;32.37;;;11.93;;
18449;SDS011;9354;50.194;7.690;2023-01-30T01:32:49;33.90;;;12.30;;
18449;SDS011;9354;50.194;7.690;2023-01-30T01:35:16;33.93;;;12.33;;
18449;SDS011;9354;50.194;7.690;2023-01-30T01:37:44;30.37;;;11.27;;
18449;SDS011;9354;50.194;7.690;2023-01-30T01:40:14;31.00;;;12.20;;
18449;SDS011;9354;50.194;7.690;2023-01-30T01:43:07;29.60;;;11.57;;
18449;SDS011;9354;50.194;7.690;2023-01-30T01:45:41;32.43;;;11.83;;
18449;SDS011;9354;50.194;7.690;2023-01-30T01:48:11;30.57;;;11.50;;
18449;SDS011;9354;50.194;7.690;2023-01-30T01:50:45;33.37;;;12.90;;
18449;SDS011;9354;50.194;7.690;2023-01-30T01:53:16;35.97;;;12.60;;
18449;SDS011;9354;50.194;7.690;2023-01-30T01:55:47;36.57;;;12.47;;
18449;SDS011;9354;50.194;7.690;2023-01-30T01:58:21;30.77;;;12.00;;
18449;SDS011;9354;50.194;7.690;2023-01-30T02:00:51;27.17;;;10.97;;
18449;SDS011;9354;50.194;7.690;2023-01-30T02:03:20;26.97;;;11.57;;
18449;SDS011;9354;50.194;7.690;2023-01-30T02:05:52;33.53;;;11.40;;
18449;SDS011;9354;50.194;7.690;2023-01-30T02:08:23;30.10;;;11.20;;
18449;SDS011;9354;50.194;7.690;2023-01-30T02:10:55;27.57;;;11.93;;
18449;SDS011;9354;50.194;7.690;2023-01-30T02:13:27;28.07;;;11.97;;
18449;SDS011;9354;50.194;7.690;2023-01-30T02:15:54;32.30;;;12.50;;
18449;SDS011;9354;50.194;7.690;2023-01-30T02:18:24;31.33;;;11.90;;
18449;SDS011;9354;50.194;7.690;2023-01-30T02:20:56;30.67;;;12.70;;
18449;SDS011;9354;50.194;7.690;2023-01-30T02:23:46;35.17;;;12.83;;
18449;SDS011;9354;50.194;7.690;2023-01-30T02:26:37;25.70;;;10.30;;
18449;SDS011;9354;50.194;7.690;2023-01-30T02:29:51;27.43;;;10.87;;
18449;SDS011;9354;50.194;7.690;2023-01-30T02:32:40;30.20;;;11.90;;
18449;SDS011;9354;50.194;7.690;2023-01-30T02:35:13;33.40;;;12.37;;
18449;SDS011;9354;50.194;7.690;2023-01-30T02:37:53;30.73;;;11.47;;
18449;SDS011;9354;50.194;7.690;2023-01-30T02:40:36;32.33;;;11.57;;
18449;SDS011;9354;50.194;7.690;2023-01-30T02:43:11;27.50;;;11.17;;
18449;SDS011;9354;50.194;7.690;2023-01-30T02:45:47;24.77;;;10.97;;
18449;SDS011;9354;50.194;7.690;2023-01-30T02:48:21;32.67;;;11.80;;
18449;SDS011;9354;50.194;7.690;2023-01-30T02:50:54;28.67;;;12.10;;
18449;SDS011;9354;50.194;7.690;2023-01-30T02:53:24;31.10;;;12.07;;
18449;SDS011;9354;50.194;7.690;2023-01-30T02:55:52;37.37;;;12.37;;
18449;SDS011;9354;50.194;7.690;2023-01-30T02:58:19;32.27;;;12.23;;
18449;SDS011;9354;50.194;7.690;2023-01-30T03:00:55;30.37;;;12.63;;
18449;SDS011;9354;50.194;7.690;2023-01-30T03:03:44;26.80;;;11.20;;
18449;SDS011;9354;50.194;7.690;2023-01-30T03:06:29;29.73;;;11.63;;
18449;SDS011;9354;50.194;7.690;2023-01-30T03:09:07;32.73;;;12.97;;
18449;SDS011;9354;50.194;7.690;2023-01-30T03:11:43;32.13;;;12.17;;
18449;SDS011;9354;50.194;7.690;2023-01-30T03:14:17;31.30;;;12.57;;
18449;SDS011;9354;50.194;7.690;2023-01-30T03:16:50;33.97;;;12.10;;
18449;SDS011;9354;50.194;7.690;2023-01-30T03:19:21;29.87;;;12.53;;
18449;SDS011;9354;50.194;7.690;2023-01-30T03:21:49;30.50;;;12.57;;
18449;SDS011;9354;50.194;7.690;2023-01-30T03:24:16;35.10;;;13.53;;
18449;SDS011;9354;50.194;7.690;2023-01-30T03:26:46;31.10;;;12.70;;
18449;SDS011;9354;50.194;7.690;2023-01-30T03:29:18;29.47;;;12.20;;
18449;SDS011;9354;50.194;7.690;2023-01-30T03:31:45;29.37;;;12.63;;
18449;SDS011;9354;50.194;7.690;2023-01-30T03:34:13;36.77;;;13.87;;
18449;SDS011;9354;50.194;7.690;2023-01-30T03:36:41;32.87;;;12.57;;
18449;SDS011;9354;50.194;7.690;2023-01-30T03:39:09;33.40;;;13.33;;
18449;SDS011;9354;50.194;7.690;2023-01-30T03:41:36;33.40;;;12.80;;
18449;SDS011;9354;50.194;7.690;2023-01-30T03:44:04;34.33;;;14.10;;
18449;SDS011;9354;50.194;7.690;2023-01-30T03:46:31;33.73;;;13.97;;
18449;SDS011;9354;50.194;7.690;2023-01-30T03:48:58;40.60;;;14.27;;
18449;SDS011;9354;50.194;7.690;2023-01-30T03:51:26;34.63;;;13.60;;
18449;SDS011;9354;50.194;7.690;2023-01-30T03:53:55;38.07;;;14.57;;
18449;SDS011;9354;50.194;7.690;2023-01-30T03:56:22;36.50;;;14.27;;
18449;SDS011;9354;50.194;7.690;2023-01-30T03:58:51;32.93;;;13.53;;
18449;SDS011;9354;50.194;7.690;2023-01-30T04:01:18;38.17;;;13.73;;
18449;SDS011;9354;50.194;7.690;2023-01-30T04:03:45;32.87;;;13.53;;
18449;SDS011;9354;50.194;7.690;2023-01-30T04:06:13;34.63;;;13.80;;
18449;SDS011;9354;50.194;7.690;2023-01-30T04:08:40;33.63;;;13.50;;
18449;SDS011;9354;50.194;7.690;2023-01-30T04:11:09;40.00;;;13.87;;
18449;SDS011;9354;50.194;7.690;2023-01-30T04:13:36;36.10;;;13.47;;
18449;SDS011;9354;50.194;7.690;2023-01-30T04:16:12;31.37;;;13.43;;
18449;SDS011;9354;50.194;7.690;2023-01-30T04:18:41;36.83;;;14.20;;
18449;SDS011;9354;50.194;7.690;2023-01-30T04:21:08;50.00;;;15.17;;
18449;SDS011;9354;50.194;7.690;2023-01-30T04:23:36;37.77;;;14.07;;
18449;SDS011;9354;50.194;7.690;2023-01-30T04:26:04;36.00;;;13.27;;
18449;SDS011;9354;50.194;7.690;2023-01-30T04:28:33;33.10;;;12.90;;
18449;SDS011;9354;50.194;7.690;2023-01-30T04:31:01;39.00;;;13.90;;
18449;SDS011;9354;50.194;7.690;2023-01-30T04:33:29;35.70;;;14.57;;
18449;SDS011;9354;50.194;7.690;2023-01-30T04:36:00;37.43;;;13.50;;
18449;SDS011;9354;50.194;7.690;2023-01-30T04:38:28;35.37;;;14.43;;
18449;SDS011;9354;50.194;7.690;2023-01-30T04:40:57;42.80;;;14.90;;
18449;SDS011;9354;50.194;7.690;2023-01-30T04:43:25;31.87;;;13.43;;
18449;SDS011;9354;50.194;7.690;2023-01-30T04:45:55;38.97;;;13.50;;
18449;SDS011;9354;50.194;7.690;2023-01-30T04:48:23;34.83;;;13.50;;
18449;SDS011;9354;50.194;7.690;2023-01-30T04:50:51;37.23;;;14.10;;
18449;SDS011;9354;50.194;7.690;2023-01-30T04:53:20;34.53;;;12.77;;
18449;SDS011;9354;50.194;7.690;2023-01-30T04:55:48;35.47;;;12.53;;
18449;SDS011;9354;50.194;7.690;2023-01-30T04:58:15;31.07;;;13.53;;
18449;SDS011;9354;50.194;7.690;2023-01-30T05:00:44;25.27;;;11.13;;
18449;SDS011;9354;50.194;7.690;2023-01-30T05:03:13;31.00;;;12.13;;
18449;SDS011;9354;50.194;7.690;2023-01-30T05:05:41;28.77;;;11.90;;
18449;SDS011;9354;50.194;7.690;2023-01-30T05:08:12;29.77;;;11.27;;
18449;SDS011;9354;50.194;7.690;2023-01-30T05:10:40;27.97;;;11.03;;
18449;SDS011;9354;50.194;7.690;2023-01-30T05:13:07;25.70;;;10.50;;
18449;SDS011;9354;50.194;7.690;2023-01-30T05:15:35;23.77;;;10.20;;
18449;SDS011;9354;50.194;7.690;2023-01-30T05:18:04;26.00;;;10.93;;
18449;SDS011;9354;50.194;7.690;2023-01-30T05:20:33;25.10;;;10.43;;
18449;SDS011;9354;50.194;7.690;2023-01-30T05:23:00;22.47;;;10.47;;
18449;SDS011;9354;50.194;7.690;2023-01-30T05:25:27;25.20;;;11.17;;
18449;SDS011;9354;50.194;7.690;2023-01-30T05:27:55;23.33;;;9.40;;
18449;SDS011;9354;50.194;7.690;2023-01-30T05:30:22;21.73;;;9.40;;
18449;SDS011;9354;50.194;7.690;2023-01-30T05:32:50;22.47;;;9.33;;
18449;SDS011;9354;50.194;7.690;2023-01-30T05:35:17;25.77;;;10.20;;
18449;SDS011;9354;50.194;7.690;2023-01-30T05:37:49;23.60;;;9.87;;
18449;SDS011;9354;50.194;7.690;2023-01-30T05:40:17;26.10;;;9.13;;
18449;SDS011;9354;50.194;7.690;2023-01-30T05:42:45;23.47;;;9.73;;
18449;SDS011;9354;50.194;7.690;2023-01-30T05:45:12;23.37;;;10.27;;
18449;SDS011;9354;50.194;7.690;2023-01-30T05:47:39;23.50;;;9.40;;
18449;SDS011;9354;50.194;7.690;2023-01-30T05:50:07;23.80;;;10.03;;
18449;SDS011;9354;50.194;7.690;2023-01-30T05:52:36;25.77;;;10.43;;
18449;SDS011;9354;50.194;7.690;2023-01-30T05:55:05;30.37;;;11.63;;
18449;SDS011;9354;50.194;7.690;2023-01-30T05:57:33;19.40;;;8.27;;
18449;SDS011;9354;50.194;7.690;2023-01-30T06:00:00;21.77;;;9.10;;
18449;SDS011;9354;50.194;7.690;2023-01-30T06:02:29;21.47;;;9.67;;
18449;SDS011;9354;50.194;7.690;2023-01-30T06:04:56;22.77;;;9.23;;
18449;SDS011;9354;50.194;7.690;2023-01-30T06:07:24;28.53;;;11.53;;
18449;SDS011;9354;50.194;7.690;2023-01-30T06:09:51;21.17;;;9.27;;
18449;SDS011;9354;50.194;7.690;2023-01-30T06:12:20;19.37;;;8.37;;
18449;SDS011;9354;50.194;7.690;2023-01-30T06:14:47;19.20;;;8.53;;
18449;SDS011;9354;50.194;7.690;2023-01-30T06:17:14;20.23;;;8.43;;
18449;SDS011;9354;50.194;7.690;2023-01-30T06:19:42;18.70;;;8.53;;
18449;SDS011;9354;50.194;7.690;2023-01-30T06:22:09;19.30;;;8.07;;
18449;SDS011;9354;50.194;7.690;2023-01-30T06:24:37;19.47;;;7.47;;
18449;SDS011;9354;50.194;7.690;2023-01-30T06:27:04;18.57;;;8.10;;
18449;SDS011;9354;50.194;7.690;2023-01-30T06:29:33;16.93;;;7.07;;
18449;SDS011;9354;50.194;7.690;2023-01-30T06:32:00;16.57;;;7.50;;
18449;SDS011;9354;50.194;7.690;2023-01-30T06:34:27;17.23;;;7.03;;
18449;SDS011;9354;50.194;7.690;2023-01-30T06:36:55;17.33;;;8.27;;
18449;SDS011;9354;50.194;7.690;2023-01-30T06:39:22;16.70;;;7.00;;
18449;SDS011;9354;50.194;7.690;2023-01-30T06:41:50;18.57;;;7.73;;
18449;SDS011;9354;50.194;7.690;2023-01-30T06:44:17;13.37;;;6.17;;
18449;SDS011;9354;50.194;7.690;2023-01-30T06:46:46;14.37;;;6.00;;
18449;SDS011;9354;50.194;7.690;2023-01-30T06:49:13;16.97;;;7.43;;
18449;SDS011;9354;50.194;7.690;2023-01-30T06:51:40;14.73;;;6.13;;
18449;SDS011;9354;50.194;7.690;2023-01-30T06:54:08;11.47;;;5.60;;
18449;SDS011;9354;50.194;7.690;2023-01-30T06:56:35;15.47;;;6.50;;
18449;SDS011;9354;50.194;7.690;2023-01-30T06:59:03;13.00;;;6.43;;
18449;SDS011;9354;50.194;7.690;2023-01-30T07:01:30;12.33;;;5.90;;
18449;SDS011;9354;50.194;7.690;2023-01-30T07:03:59;14.40;;;6.23;;
18449;SDS011;9354;50.194;7.690;2023-01-30T07:06:26;13.50;;;6.60;;
18449;SDS011;9354;50.194;7.690;2023-01-30T07:08:54;13.60;;;6.57;;
18449;SDS011;9354;50.194;7.690;2023-01-30T07:11:23;14.80;;;6.00;;
18449;SDS011;9354;50.194;7.690;2023-01-30T07:13:50;13.87;;;6.20;;
18449;SDS011;9354;50.194;7.690;2023-01-30T07:16:18;16.00;;;6.73;;
18449;SDS011;9354;50.194;7.690;2023-01-30T07:18:45;13.40;;;5.93;;
18449;SDS011;9354;50.194;7.690;2023-01-30T07:21:14;14.77;;;5.93;;
18449;SDS011;9354;50.194;7.690;2023-01-30T07:23:41;11.87;;;6.40;;
18449;SDS011;9354;50.194;7.690;2023-01-30T07:26:09;18.30;;;5.50;;
18449;SDS011;9354;50.194;7.690;2023-01-30T07:28:36;12.70;;;5.50;;
18449;SDS011;9354;50.194;7.690;2023-01-30T07:31:04;11.63;;;5.57;;
18449;SDS011;9354;50.194;7.690;2023-01-30T07:33:31;10.17;;;4.93;;
18449;SDS011;9354;50.194;7.690;2023-01-30T07:35:58;12.30;;;5.37;;
18449;SDS011;9354;50.194;7.690;2023-01-30T07:38:27;12.13;;;5.37;;
18449;SDS011;9354;50.194;7.690;2023-01-30T07:40:55;9.70;;;4.17;;
18449;SDS011;9354;50.194;7.690;2023-01-30T07:43:23;14.53;;;5.70;;
18449;SDS011;9354;50.194;7.690;2023-01-30T07:45:50;9.70;;;5.37;;
18449;SDS011;9354;50.194;7.690;2023-01-30T07:48:18;10.83;;;4.70;;
18449;SDS011;9354;50.194;7.690;2023-01-30T07:50:45;8.60;;;4.30;;
18449;SDS011;9354;50.194;7.690;2023-01-30T07:53:14;10.23;;;4.83;;
18449;SDS011;9354;50.194;7.690;2023-01-30T07:55:44;9.47;;;4.20;;
18449;SDS011;9354;50.194;7.690;2023-01-30T07:58:12;10.87;;;4.93;;
18449;SDS011;9354;50.194;7.690;2023-01-30T08:00:40;7.37;;;3.90;;
18449;SDS011;9354;50.194;7.690;2023-01-30T08:03:10;12.57;;;5.60;;
18449;SDS011;9354;50.194;7.690;2023-01-30T08:05:38;8.07;;;4.40;;
18449;SDS011;9354;50.194;7.690;2023-01-30T08:08:05;10.60;;;5.90;;
18449;SDS011;9354;50.194;7.690;2023-01-30T08:10:33;11.47;;;5.20;;
18449;SDS011;9354;50.194;7.690;2023-01-30T08:13:01;11.17;;;5.07;;
18449;SDS011;9354;50.194;7.690;2023-01-30T08:15:29;6.30;;;3.67;;
18449;SDS011;9354;50.194;7.690;2023-01-30T08:17:58;8.53;;;4.07;;
18449;SDS011;9354;50.194;7.690;2023-01-30T08:20:26;8.13;;;3.47;;
18449;SDS011;9354;50.194;7.690;2023-01-30T08:22:54;8.53;;;4.33;;
18449;SDS011;9354;50.194;7.690;2023-01-30T08:25:21;15.60;;;6.70;;
18449;SDS011;9354;50.194;7.690;2023-01-30T08:27:49;7.70;;;3.70;;
18449;SDS011;9354;50.194;7.690;2023-01-30T08:30:19;12.73;;;5.03;;
18449;SDS011;9354;50.194;7.690;2023-01-30T08:32:48;14.43;;;4.70;;
18449;SDS011;9354;50.194;7.690;2023-01-30T08:35:15;11.03;;;4.30;;
18449;SDS011;9354;50.194;7.690;2023-01-30T08:37:42;10.97;;;4.97;;
18449;SDS011;9354;50.194;7.690;2023-01-30T08:40:10;10.30;;;4.67;;
18449;SDS011;9354;50.194;7.690;2023-01-30T08:42:38;7.27;;;3.73;;
18449;SDS011;9354;50.194;7.690;2023-01-30T08:45:06;4.90;;;2.57;;
18449;SDS011;9354;50.194;7.690;2023-01-30T08:47:35;5.50;;;2.83;;
18449;SDS011;9354;50.194;7.690;2023-01-30T08:50:03;4.77;;;2.33;;
18449;SDS011;9354;50.194;7.690;2023-01-30T08:52:31;8.17;;;4.03;;
18449;SDS011;9354;50.194;7.690;2023-01-30T08:54:59;6.17;;;3.43;;
18449;SDS011;9354;50.194;7.690;2023-01-30T08:57:26;19.87;;;6.37;;
18449;SDS011;9354;50.194;7.690;2023-01-30T08:59:53;8.80;;;4.03;;
18449;SDS011;9354;50.194;7.690;2023-01-30T09:02:21;7.77;;;3.73;;
18449;SDS011;9354;50.194;7.690;2023-01-30T09:04:50;4.43;;;2.63;;
18449;SDS011;9354;50.194;7.690;2023-01-30T09:07:17;3.30;;;2.13;;
18449;SDS011;9354;50.194;7.690;2023-01-30T09:09:44;4.03;;;2.20;;
18449;SDS011;9354;50.194;7.690;2023-01-30T09:12:13;3.63;;;2.00;;
18449;SDS011;9354;50.194;7.690;2023-01-30T09:14:40;3.07;;;2.00;;
18449;SDS011;9354;50.194;7.690;2023-01-30T09:17:08;2.87;;;1.70;;
18449;SDS011;9354;50.194;7.690;2023-01-30T09:19:35;2.97;;;1.87;;
18449;SDS011;9354;50.194;7.690;2023-01-30T09:22:04;2.13;;;1.60;;
18449;SDS011;9354;50.194;7.690;2023-01-30T09:24:32;4.30;;;2.43;;
18449;SDS011;9354;50.194;7.690;2023-01-30T09:27:00;2.93;;;1.67;;
18449;SDS011;9354;50.194;7.690;2023-01-30T09:29:28;2.50;;;1.70;;
18449;SDS011;9354;50.194;7.690;2023-01-30T09:31:55;3.07;;;1.83;;
18449;SDS011;9354;50.194;7.690;2023-01-30T09:34:23;2.93;;;1.90;;
18449;SDS011;9354;50.194;7.690;2023-01-30T09:36:53;3.47;;;2.30;;
18449;SDS011;9354;50.194;7.690;2023-01-30T09:39:21;3.73;;;1.93;;
18449;SDS011;9354;50.194;7.690;2023-01-30T09:42:03;3.77;;;2.10;;
18449;SDS011;9354;50.194;7.690;2023-01-30T09:44:54;3.17;;;2.10;;
18449;SDS011;9354;50.194;7.690;2023-01-30T09:47:31;3.17;;;2.03;;
18449;SDS011;9354;50.194;7.690;2023-01-30T09:50:07;4.17;;;2.13;;
18449;SDS011;9354;50.194;7.690;2023-01-30T09:52:57;5.07;;;2.73;;
18449;SDS011;9354;50.194;7.690;2023-01-30T09:55:35;3.40;;;1.97;;
18449;SDS011;9354;50.194;7.690;2023-01-30T09:58:07;4.90;;;2.60;;
18449;SDS011;9354;50.194;7.690;2023-01-30T10:00:42;4.67;;;2.37;;
18449;SDS011;9354;50.194;7.690;2023-01-30T10:03:12;3.70;;;2.17;;
18449;SDS011;9354;50.194;7.690;2023-01-30T10:05:44;3.47;;;2.10;;
18449;SDS011;9354;50.194;7.690;2023-01-30T10:08:18;4.27;;;2.30;;
18449;SDS011;9354;50.194;7.690;2023-01-30T10:10:57;4.17;;;2.20;;
18449;SDS011;9354;50.194;7.690;2023-01-30T10:13:37;5.60;;;2.97;;
18449;SDS011;9354;50.194;7.690;2023-01-30T10:16:15;4.47;;;2.63;;
18449;SDS011;9354;50.194;7.690;2023-01-30T10:21:45;3.63;;;2.03;;
18449;SDS011;9354;50.194;7.690;2023-01-30T10:24:23;3.83;;;2.00;;
18449;SDS011;9354;50.194;7.690;2023-01-30T10:27:01;2.70;;;1.67;;
18449;SDS011;9354;50.194;7.690;2023-01-30T10:29:30;3.13;;;1.70;;
18449;SDS011;9354;50.194;7.690;2023-01-30T10:32:02;3.57;;;2.00;;
18449;SDS011;9354;50.194;7.690;2023-01-30T10:34:33;4.37;;;2.20;;
18449;SDS011;9354;50.194;7.690;2023-01-30T10:37:05;6.00;;;2.60;;
18449;SDS011;9354;50.194;7.690;2023-01-30T10:39:40;5.47;;;2.43;;
18449;SDS011;9354;50.194;7.690;2023-01-30T10:42:17;5.40;;;2.87;;
18449;SDS011;9354;50.194;7.690;2023-01-30T10:44:49;3.70;;;2.17;;
18449;SDS011;9354;50.194;7.690;2023-01-30T10:47:23;3.33;;;2.00;;
18449;SDS011;9354;50.194;7.690;2023-01-30T10:50:10;4.00;;;2.27;;
18449;SDS011;9354;50.194;7.690;2023-01-30T10:52:43;4.87;;;2.30;;
18449;SDS011;9354;50.194;7.690;2023-01-30T10:55:18;3.40;;;2.40;;
18449;SDS011;9354;50.194;7.690;2023-01-30T10:57:57;4.43;;;2.50;;
18449;SDS011;9354;50.194;7.690;2023-01-30T11:00:32;7.83;;;3.40;;
18449;SDS011;9354;50.194;7.690;2023-01-30T11:03:08;7.60;;;3.23;;
18449;SDS011;9354;50.194;7.690;2023-01-30T11:05:48;18.30;;;5.77;;
18449;SDS011;9354;50.194;7.690;2023-01-30T11:08:23;7.70;;;4.03;;
18449;SDS011;9354;50.194;7.690;2023-01-30T11:10:52;11.77;;;3.87;;
18449;SDS011;9354;50.194;7.690;2023-01-30T11:13:21;7.73;;;2.77;;
18449;SDS011;9354;50.194;7.690;2023-01-30T11:15:55;14.23;;;4.60;;
18449;SDS011;9354;50.194;7.690;2023-01-30T11:18:24;4.50;;;2.40;;
18449;SDS011;9354;50.194;7.690;2023-01-30T11:20:58;10.40;;;2.70;;
18449;SDS011;9354;50.194;7.690;2023-01-30T11:23:32;10.10;;;3.43;;
18449;SDS011;9354;50.194;7.690;2023-01-30T11:26:01;11.10;;;3.03;;
18449;SDS011;9354;50.194;7.690;2023-01-30T11:28:35;10.17;;;3.23;;
18449;SDS011;9354;50.194;7.690;2023-01-30T11:31:13;7.87;;;2.53;;
18449;SDS011;9354;50.194;7.690;2023-01-30T11:33:44;20.97;;;5.03;;
18449;SDS011;9354;50.194;7.690;2023-01-30T11:36:23;19.17;;;4.97;;
18449;SDS011;9354;50.194;7.690;2023-01-30T11:38:54;6.83;;;2.90;;
18449;SDS011;9354;50.194;7.690;2023-01-30T11:41:24;3.77;;;2.03;;
18449;SDS011;9354;50.194;7.690;2023-01-30T11:43:53;3.10;;;1.47;;
18449;SDS011;9354;50.194;7.690;2023-01-30T11:46:27;3.03;;;1.70;;
18449;SDS011;9354;50.194;7.690;2023-01-30T11:48:59;4.30;;;1.50;;
18449;SDS011;9354;50.194;7.690;2023-01-30T11:51:28;2.97;;;1.40;;
18449;SDS011;9354;50.194;7.690;2023-01-30T11:53:59;2.43;;;1.43;;
18449;SDS011;9354;50.194;7.690;2023-01-30T11:56:29;2.77;;;1.40;;
18449;SDS011;9354;50.194;7.690;2023-01-30T11:59:03;3.40;;;1.97;;
18449;SDS011;9354;50.194;7.690;2023-01-30T12:01:34;3.10;;;1.50;;
18449;SDS011;9354;50.194;7.690;2023-01-30T12:04:04;4.47;;;1.60;;
18449;SDS011;9354;50.194;7.690;2023-01-30T12:06:35;3.37;;;1.40;;
18449;SDS011;9354;50.194;7.690;2023-01-30T12:09:03;2.93;;;1.60;;
18449;SDS011;9354;50.194;7.690;2023-01-30T12:11:39;4.97;;;2.00;;
18449;SDS011;9354;50.194;7.690;2023-01-30T12:14:16;3.33;;;1.70;;
18449;SDS011;9354;50.194;7.690;2023-01-30T12:16:53;10.57;;;2.50;;
18449;SDS011;9354;50.194;7.690;2023-01-30T12:19:31;3.03;;;1.80;;
18449;SDS011;9354;50.194;7.690;2023-01-30T12:22:08;6.80;;;1.53;;
18449;SDS011;9354;50.194;7.690;2023-01-30T12:24:45;4.43;;;1.50;;
18449;SDS011;9354;50.194;7.690;2023-01-30T12:27:19;3.53;;;1.83;;
18449;SDS011;9354;50.194;7.690;2023-01-30T12:29:56;2.20;;;1.37;;
18449;SDS011;9354;50.194;7.690;2023-01-30T12:32:30;4.77;;;1.50;;
18449;SDS011;9354;50.194;7.690;2023-01-30T12:34:59;4.03;;;2.03;;
18449;SDS011;9354;50.194;7.690;2023-01-30T12:37:31;3.23;;;1.40;;
18449;SDS011;9354;50.194;7.690;2023-01-30T12:40:10;3.60;;;1.40;;
18449;SDS011;9354;50.194;7.690;2023-01-30T12:45:48;5.80;;;2.20;;
18449;SDS011;9354;50.194;7.690;2023-01-30T12:51:26;3.67;;;1.80;;
18449;SDS011;9354;50.194;7.690;2023-01-30T12:54:26;4.53;;;1.50;;
18449;SDS011;9354;50.194;7.690;2023-01-30T12:57:07;3.50;;;1.60;;
18449;SDS011;9354;50.194;7.690;2023-01-30T12:59:45;4.87;;;2.03;;
18449;SDS011;9354;50.194;7.690;2023-01-30T13:02:29;8.33;;;1.53;;
18449;SDS011;9354;50.194;7.690;2023-01-30T13:05:14;7.13;;;2.40;;
18449;SDS011;9354;50.194;7.690;2023-01-30T13:07:50;6.17;;;1.63;;
18449;SDS011;9354;50.194;7.690;2023-01-30T13:10:30;4.57;;;1.90;;
18449;SDS011;9354;50.194;7.690;2023-01-30T13:13:07;6.03;;;2.70;;
18449;SDS011;9354;50.194;7.690;2023-01-30T13:15:41;9.13;;;1.80;;
18449;SDS011;9354;50.194;7.690;2023-01-30T13:18:17;4.43;;;1.40;;
18449;SDS011;9354;50.194;7.690;2023-01-30T13:20:51;4.53;;;1.67;;
18449;SDS011;9354;50.194;7.690;2023-01-30T13:23:26;4.50;;;2.20;;
18449;SDS011;9354;50.194;7.690;2023-01-30T13:26:04;6.80;;;2.77;;
18449;SDS011;9354;50.194;7.690;2023-01-30T13:28:35;12.67;;;2.70;;
18449;SDS011;9354;50.194;7.690;2023-01-30T13:31:05;9.53;;;2.07;;
18449;SDS011;9354;50.194;7.690;2023-01-30T13:33:39;10.50;;;3.03;;
18449;SDS011;9354;50.194;7.690;2023-01-30T13:36:10;5.33;;;2.53;;
18449;SDS011;9354;50.194;7.690;2023-01-30T13:38:42;8.87;;;2.70;;
18449;SDS011;9354;50.194;7.690;2023-01-30T13:41:19;9.37;;;3.53;;
18449;SDS011;9354;50.194;7.690;2023-01-30T13:43:49;8.23;;;2.47;;
18449;SDS011;9354;50.194;7.690;2023-01-30T13:46:21;8.60;;;2.97;;
18449;SDS011;9354;50.194;7.690;2023-01-30T13:49:00;15.50;;;4.30;;
18449;SDS011;9354;50.194;7.690;2023-01-30T13:51:39;9.57;;;3.90;;
18449;SDS011;9354;50.194;7.690;2023-01-30T13:54:14;14.87;;;5.63;;
18449;SDS011;9354;50.194;7.690;2023-01-30T13:56:53;19.23;;;5.07;;
18449;SDS011;9354;50.194;7.690;2023-01-30T13:59:28;22.33;;;7.10;;
18449;SDS011;9354;50.194;7.690;2023-01-30T14:02:16;8.60;;;2.27;;
18449;SDS011;9354;50.194;7.690;2023-01-30T14:04:47;7.93;;;1.93;;
18449;SDS011;9354;50.194;7.690;2023-01-30T14:07:23;12.97;;;2.47;;
18449;SDS011;9354;50.194;7.690;2023-01-30T14:10:12;10.23;;;2.83;;
18449;SDS011;9354;50.194;7.690;2023-01-30T14:12:42;14.33;;;3.13;;
18449;SDS011;9354;50.194;7.690;2023-01-30T14:15:19;13.07;;;2.17;;
18449;SDS011;9354;50.194;7.690;2023-01-30T14:18:00;14.07;;;1.80;;
18449;SDS011;9354;50.194;7.690;2023-01-30T14:20:33;8.07;;;1.73;;
18449;SDS011;9354;50.194;7.690;2023-01-30T14:23:02;6.93;;;2.50;;
18449;SDS011;9354;50.194;7.690;2023-01-30T14:25:33;7.13;;;1.83;;
18449;SDS011;9354;50.194;7.690;2023-01-30T14:37:29;17.23;;;2.07;;
18449;SDS011;9354;50.194;7.690;2023-01-30T14:49:15;15.70;;;2.73;;
18449;SDS011;9354;50.194;7.690;2023-01-30T14:51:50;10.83;;;2.43;;
18449;SDS011;9354;50.194;7.690;2023-01-30T14:54:23;10.77;;;2.23;;
18449;SDS011;9354;50.194;7.690;2023-01-30T14:56:56;19.63;;;2.57;;
18449;SDS011;9354;50.194;7.690;2023-01-30T14:59:27;7.03;;;1.80;;
18449;SDS011;9354;50.194;7.690;2023-01-30T15:01:58;9.50;;;2.50;;
18449;SDS011;9354;50.194;7.690;2023-01-30T15:04:29;8.80;;;1.90;;
18449;SDS011;9354;50.194;7.690;2023-01-30T15:06:59;14.07;;;2.83;;
18449;SDS011;9354;50.194;7.690;2023-01-30T15:09:33;14.60;;;1.80;;
18449;SDS011;9354;50.194;7.690;2023-01-30T15:12:07;8.87;;;1.93;;
18449;SDS011;9354;50.194;7.690;2023-01-30T15:14:49;7.53;;;1.67;;
18449;SDS011;9354;50.194;7.690;2023-01-30T15:17:27;10.57;;;2.40;;
18449;SDS011;9354;50.194;7.690;2023-01-30T15:23:10;15.27;;;4.57;;
18449;SDS011;9354;50.194;7.690;2023-01-30T15:25:57;11.43;;;1.87;;
18449;SDS011;9354;50.194;7.690;2023-01-30T15:28:39;19.30;;;2.50;;
18449;SDS011;9354;50.194;7.690;2023-01-30T15:31:13;27.03;;;3.30;;
18449;SDS011;9354;50.194;7.690;2023-01-30T15:33:42;10.03;;;2.60;;
18449;SDS011;9354;50.194;7.690;2023-01-30T15:36:17;11.20;;;1.90;;
18449;SDS011;9354;50.194;7.690;2023-01-30T15:38:54;14.13;;;2.57;;
18449;SDS011;9354;50.194;7.690;2023-01-30T15:41:26;12.80;;;2.20;;
18449;SDS011;9354;50.194;7.690;2023-01-30T15:44:09;15.90;;;2.50;;